Time;durP1;ratioP1;P1;durP2;ratioP2;P2;SDS_P1;SDS_P2;PMS_P1;PMS_P2;Temp;Humidity;BMP_temperature;BMP_pressure;BME280_temperature;BME280_humidity;BME280_pressure;Samples;Min_cycle;Max_cycle;Signal;HPM_P1;HPM_P2
2022/06/28 00:01:49;;;;;;;4.72;3.38;;;;;;;;;;5004277;28;20033;-77
2022/06/28 00:04:14;;;;;;;4.93;3.70;;;;;;;;;;5023913;28;20025;-77
2022/06/28 00:06:39;;;;;;;4.80;3.72;;;;;;;;;;5026686;28;20037;-73
2022/06/28 00:09:05;;;;;;;4.45;3.67;;;;;;;;;;5022284;28;20107;-74
2022/06/28 00:11:30;;;;;;;4.82;3.28;;;;;;;;;;5003279;28;20020;-77
2022/06/28 00:13:56;;;;;;;6.72;3.97;;;;;;;;;;5023348;28;20374;-76
2022/06/28 00:16:21;;;;;;;5.18;3.80;;;;;;;;;;5020058;28;20032;-75
2022/06/28 00:18:49;;;;;;;6.43;3.63;;;;;;;;;;5009188;28;20029;-77
2022/06/28 00:21:14;;;;;;;4.50;3.65;;;;;;;;;;5006648;28;20029;-77
2022/06/28 00:23:42;;;;;;;4.55;3.33;;;;;;;;;;5020314;28;20645;-79
2022/06/28 00:26:08;;;;;;;4.80;3.70;;;;;;;;;;5023279;28;20481;-73
2022/06/28 00:28:34;;;;;;;5.05;3.63;;;;;;;;;;5006747;28;20049;-77
2022/06/28 00:31:01;;;;;;;4.70;3.60;;;;;;;;;;5002807;28;20048;-74
2022/06/28 00:33:26;;;;;;;6.43;4.20;;;;;;;;;;5023172;28;20037;-74
2022/06/28 00:35:52;;;;;;;5.10;3.80;;;;;;;;;;5002718;28;20033;-73
2022/06/28 00:38:17;;;;;;;4.95;3.67;;;;;;;;;;5028754;28;20107;-76
2022/06/28 00:40:48;;;;;;;5.10;3.78;;;;;;;;;;5018203;28;20446;-74
2022/06/28 00:43:15;;;;;;;4.85;3.47;;;;;;;;;;5026975;28;20035;-75
2022/06/28 00:45:43;;;;;;;5.00;3.53;;;;;;;;;;5018808;28;20061;-75
2022/06/28 00:48:12;;;;;;;4.97;3.70;;;;;;;;;;5022242;28;20564;-76
2022/06/28 00:50:38;;;;;;;5.20;3.55;;;;;;;;;;5020928;28;20088;-74
2022/06/28 00:53:09;;;;;;;4.72;3.53;;;;;;;;;;5028816;28;20085;-75
2022/06/28 00:55:35;;;;;;;7.05;3.80;;;;;;;;;;5005488;28;20534;-74
2022/06/28 00:58:01;;;;;;;4.82;3.67;;;;;;;;;;5004997;28;20033;-78
2022/06/28 01:00:28;;;;;;;4.50;3.50;;;;;;;;;;5021029;28;20029;-76
2022/06/28 01:02:54;;;;;;;5.75;3.90;;;;;;;;;;5020577;28;20132;-75
2022/06/28 01:05:20;;;;;;;4.95;3.53;;;;;;;;;;5023414;28;20091;-79
2022/06/28 01:07:45;;;;;;;6.20;3.75;;;;;;;;;;5025214;28;20477;-74
2022/06/28 01:10:11;;;;;;;5.65;3.58;;;;;;;;;;5022140;28;20366;-77
2022/06/28 01:12:36;;;;;;;5.50;3.72;;;;;;;;;;5006393;28;20648;-75
2022/06/28 01:15:02;;;;;;;6.90;4.00;;;;;;;;;;5025807;28;20037;-73
2022/06/28 01:17:27;;;;;;;4.53;3.55;;;;;;;;;;5017932;28;20033;-74
2022/06/28 01:19:52;;;;;;;5.07;3.67;;;;;;;;;;5023956;28;20037;-75
2022/06/28 01:22:19;;;;;;;6.82;3.78;;;;;;;;;;5022770;28;20033;-73
2022/06/28 01:24:44;;;;;;;4.70;3.30;;;;;;;;;;5005388;28;20037;-77
2022/06/28 01:27:11;;;;;;;6.07;3.50;;;;;;;;;;5018078;28;20440;-78
2022/06/28 01:29:36;;;;;;;5.35;3.70;;;;;;;;;;5023210;28;20045;-75
2022/06/28 01:32:02;;;;;;;5.25;3.60;;;;;;;;;;5021732;28;20314;-76
2022/06/28 01:34:27;;;;;;;6.20;3.30;;;;;;;;;;5012889;28;20047;-77
2022/06/28 01:36:53;;;;;;;5.18;3.72;;;;;;;;;;5005981;28;20039;-79
2022/06/28 01:39:18;;;;;;;5.85;3.80;;;;;;;;;;5023427;28;20036;-74
2022/06/28 01:41:44;;;;;;;5.15;3.40;;;;;;;;;;5018220;28;20026;-76
2022/06/28 01:44:10;;;;;;;7.57;3.40;;;;;;;;;;5015736;28;20033;-76
2022/06/28 01:46:37;;;;;;;5.38;3.50;;;;;;;;;;5025122;28;20034;-77
2022/06/28 01:49:05;;;;;;;4.72;3.30;;;;;;;;;;5006757;28;20061;-77
2022/06/28 01:51:31;;;;;;;4.38;3.30;;;;;;;;;;5021581;28;20480;-77
2022/06/28 01:53:57;;;;;;;4.50;3.28;;;;;;;;;;5014064;28;20037;-77
2022/06/28 01:56:22;;;;;;;5.45;3.53;;;;;;;;;;5020256;28;20544;-80
2022/06/28 01:58:48;;;;;;;5.10;3.45;;;;;;;;;;5005812;28;20087;-77
2022/06/28 02:01:13;;;;;;;6.47;3.40;;;;;;;;;;5004052;28;20183;-79
2022/06/28 02:03:40;;;;;;;5.15;3.38;;;;;;;;;;5022239;28;20041;-76
2022/06/28 02:06:06;;;;;;;4.60;3.78;;;;;;;;;;5027214;28;20052;-77
2022/06/28 02:08:34;;;;;;;4.40;3.35;;;;;;;;;;5001488;28;20021;-75
2022/06/28 02:11:00;;;;;;;5.68;3.20;;;;;;;;;;5027266;28;20048;-78
2022/06/28 02:13:25;;;;;;;4.82;3.33;;;;;;;;;;5030391;28;20033;-73
2022/06/28 02:15:50;;;;;;;5.07;3.20;;;;;;;;;;5025788;28;20033;-76
2022/06/28 02:18:16;;;;;;;6.03;4.05;;;;;;;;;;5028314;28;20166;-80
2022/06/28 02:20:41;;;;;;;5.80;3.15;;;;;;;;;;5008812;28;20025;-76
2022/06/28 02:23:07;;;;;;;7.18;4.10;;;;;;;;;;5028308;28;20046;-77
2022/06/28 02:25:32;;;;;;;4.32;3.35;;;;;;;;;;5020714;28;20029;-75
2022/06/28 02:27:58;;;;;;;6.45;3.60;;;;;;;;;;5021247;28;20045;-72
2022/06/28 02:30:23;;;;;;;5.05;3.35;;;;;;;;;;5020760;28;20840;-73
2022/06/28 02:32:48;;;;;;;4.95;3.58;;;;;;;;;;5001104;28;20053;-79
2022/06/28 02:40:42;;;;;;;8.13;3.67;;;;;;;;;;5022773;28;20079;-75
2022/06/28 02:43:08;;;;;;;7.00;3.58;;;;;;;;;;5025182;28;20033;-73
2022/06/28 02:45:35;;;;;;;5.15;3.67;;;;;;;;;;5027110;28;20029;-76
2022/06/28 02:48:01;;;;;;;5.00;3.35;;;;;;;;;;5010412;28;20029;-73
2022/06/28 02:50:27;;;;;;;6.20;3.88;;;;;;;;;;5004292;28;20064;-73
2022/06/28 02:52:53;;;;;;;5.18;3.33;;;;;;;;;;5001861;28;20463;-74
2022/06/28 02:55:18;;;;;;;5.97;3.45;;;;;;;;;;5023769;28;20029;-78
2022/06/28 02:57:45;;;;;;;5.78;3.42;;;;;;;;;;5024705;28;20104;-77
2022/06/28 03:00:13;;;;;;;4.85;3.65;;;;;;;;;;5019550;28;20515;-80
2022/06/28 03:02:39;;;;;;;5.50;2.97;;;;;;;;;;5023291;28;20041;-77
2022/06/28 03:05:11;;;;;;;4.82;3.13;;;;;;;;;;5027469;28;20087;-78
2022/06/28 03:07:36;;;;;;;4.97;3.35;;;;;;;;;;5024687;28;20045;-79
2022/06/28 03:10:03;;;;;;;4.35;3.50;;;;;;;;;;5026403;28;20425;-77
2022/06/28 03:12:29;;;;;;;4.05;3.00;;;;;;;;;;5024145;28;20057;-79
2022/06/28 03:14:54;;;;;;;4.88;2.95;;;;;;;;;;5025407;28;20047;-75
2022/06/28 03:17:20;;;;;;;5.85;3.38;;;;;;;;;;5005880;28;20029;-77
2022/06/28 03:19:45;;;;;;;5.13;3.25;;;;;;;;;;5009222;28;20033;-73
2022/06/28 03:22:10;;;;;;;5.78;3.22;;;;;;;;;;4997659;28;20041;-73
2022/06/28 03:24:36;;;;;;;5.43;3.60;;;;;;;;;;5019407;28;20041;-77
2022/06/28 03:27:02;;;;;;;4.57;3.30;;;;;;;;;;5000179;28;20033;-74
2022/06/28 03:29:27;;;;;;;4.45;3.60;;;;;;;;;;5026758;28;20060;-79
2022/06/28 03:31:53;;;;;;;7.57;3.65;;;;;;;;;;5021957;28;20036;-80
2022/06/28 03:34:19;;;;;;;5.28;3.45;;;;;;;;;;5021971;28;20025;-73
2022/06/28 03:36:45;;;;;;;6.50;3.47;;;;;;;;;;5020359;28;20029;-79
2022/06/28 03:39:11;;;;;;;5.30;3.22;;;;;;;;;;5022682;28;20025;-75
2022/06/28 03:41:36;;;;;;;4.82;3.50;;;;;;;;;;5023141;28;20033;-73
2022/06/28 03:44:02;;;;;;;4.93;3.35;;;;;;;;;;5021629;28;20037;-73
2022/06/28 03:46:27;;;;;;;4.13;3.22;;;;;;;;;;5024572;28;20103;-74
2022/06/28 03:48:53;;;;;;;4.45;3.20;;;;;;;;;;5016830;28;20585;-75
2022/06/28 03:51:19;;;;;;;5.07;3.30;;;;;;;;;;5017458;28;20025;-80
2022/06/28 03:53:44;;;;;;;7.03;3.50;;;;;;;;;;5021396;28;20032;-75
2022/06/28 03:56:10;;;;;;;6.18;3.60;;;;;;;;;;5028458;28;20029;-76
2022/06/28 03:58:36;;;;;;;5.28;3.40;;;;;;;;;;5017349;28;20045;-77
2022/06/28 04:01:01;;;;;;;5.20;3.15;;;;;;;;;;5007905;28;20043;-76
2022/06/28 04:03:27;;;;;;;4.50;3.20;;;;;;;;;;5004376;28;20030;-75
2022/06/28 04:05:52;;;;;;;6.65;3.25;;;;;;;;;;5007526;28;20334;-77
2022/06/28 04:08:18;;;;;;;5.40;3.13;;;;;;;;;;5027751;28;20029;-79
2022/06/28 04:10:44;;;;;;;5.22;3.83;;;;;;;;;;5027361;28;20507;-73
2022/06/28 04:13:09;;;;;;;6.88;3.95;;;;;;;;;;5020553;28;20040;-76
2022/06/28 04:15:36;;;;;;;4.78;3.70;;;;;;;;;;5009677;28;20408;-79
2022/06/28 04:18:02;;;;;;;5.35;3.38;;;;;;;;;;5014908;28;20120;-76
2022/06/28 04:20:27;;;;;;;5.07;3.63;;;;;;;;;;5002702;28;20030;-76
2022/06/28 04:22:53;;;;;;;6.25;4.20;;;;;;;;;;5016775;28;20025;-75
2022/06/28 04:25:18;;;;;;;5.53;3.78;;;;;;;;;;5021748;28;20033;-73
2022/06/28 04:27:43;;;;;;;4.97;3.70;;;;;;;;;;5004012;28;20061;-79
2022/06/28 04:30:09;;;;;;;6.05;3.92;;;;;;;;;;5023377;28;20033;-79
2022/06/28 04:32:35;;;;;;;7.50;4.45;;;;;;;;;;5025308;28;20148;-74
2022/06/28 04:35:00;;;;;;;7.40;3.92;;;;;;;;;;5026849;28;20033;-75
2022/06/28 04:37:26;;;;;;;6.78;3.70;;;;;;;;;;5024203;28;20552;-73
2022/06/28 04:39:51;;;;;;;5.13;3.75;;;;;;;;;;5004398;28;20029;-72
2022/06/28 04:42:18;;;;;;;6.82;3.72;;;;;;;;;;5018922;28;20108;-74
2022/06/28 04:44:44;;;;;;;5.30;3.58;;;;;;;;;;4998898;28;20025;-73
2022/06/28 04:47:09;;;;;;;7.30;3.60;;;;;;;;;;5006974;28;20040;-72
2022/06/28 04:49:34;;;;;;;9.18;3.75;;;;;;;;;;5022380;28;20029;-77
2022/06/28 04:52:00;;;;;;;5.78;3.55;;;;;;;;;;5021831;28;20115;-77
2022/06/28 04:54:26;;;;;;;7.88;3.65;;;;;;;;;;5021404;28;20025;-74
2022/06/28 04:56:52;;;;;;;9.65;3.90;;;;;;;;;;5021940;28;20037;-79
2022/06/28 04:59:17;;;;;;;4.85;3.50;;;;;;;;;;5000039;28;20532;-77
2022/06/28 05:01:43;;;;;;;9.85;4.07;;;;;;;;;;5011697;28;20036;-73
2022/06/28 05:04:08;;;;;;;6.97;3.95;;;;;;;;;;5021042;28;20037;-78
2022/06/28 05:06:34;;;;;;;7.97;4.00;;;;;;;;;;5004392;28;20441;-77
2022/06/28 05:08:59;;;;;;;5.95;3.92;;;;;;;;;;5021952;28;20512;-75
2022/06/28 05:11:25;;;;;;;6.13;3.40;;;;;;;;;;5016830;28;20071;-75
2022/06/28 05:13:50;;;;;;;6.82;3.95;;;;;;;;;;5021947;28;20435;-75
2022/06/28 05:16:16;;;;;;;7.65;3.40;;;;;;;;;;5003137;28;20032;-74
2022/06/28 05:18:41;;;;;;;5.80;3.60;;;;;;;;;;5021718;28;20033;-74
2022/06/28 05:21:07;;;;;;;5.65;3.65;;;;;;;;;;5022674;28;20040;-75
2022/06/28 05:23:32;;;;;;;8.52;4.13;;;;;;;;;;5024960;28;20044;-78
2022/06/28 05:25:57;;;;;;;5.90;3.42;;;;;;;;;;5022145;28;20044;-77
2022/06/28 05:28:23;;;;;;;7.43;3.75;;;;;;;;;;5000119;28;20049;-78
2022/06/28 05:30:48;;;;;;;6.72;3.83;;;;;;;;;;5023902;28;20033;-76
2022/06/28 05:33:14;;;;;;;7.22;3.53;;;;;;;;;;5023008;28;20070;-77
2022/06/28 05:35:39;;;;;;;9.88;3.80;;;;;;;;;;5006277;28;20326;-74
2022/06/28 05:38:05;;;;;;;9.68;3.50;;;;;;;;;;5023724;28;20044;-77
2022/06/28 05:40:30;;;;;;;5.95;3.65;;;;;;;;;;5021175;28;20087;-79
2022/06/28 05:42:56;;;;;;;6.57;3.95;;;;;;;;;;5024102;28;20365;-74
2022/06/28 05:45:21;;;;;;;7.32;3.67;;;;;;;;;;5015487;28;20032;-77
2022/06/28 05:47:47;;;;;;;6.38;3.58;;;;;;;;;;5030870;28;20534;-72
2022/06/28 05:50:12;;;;;;;9.27;3.60;;;;;;;;;;5016256;28;20078;-79
2022/06/28 05:52:38;;;;;;;6.15;3.95;;;;;;;;;;5023961;28;20201;-78
2022/06/28 05:55:04;;;;;;;7.95;3.53;;;;;;;;;;5028566;28;20025;-75
2022/06/28 05:57:29;;;;;;;7.32;3.88;;;;;;;;;;5011771;28;20497;-75
2022/06/28 05:59:55;;;;;;;8.50;3.92;;;;;;;;;;5006330;28;20033;-73
2022/06/28 06:02:20;;;;;;;8.13;3.38;;;;;;;;;;5027918;28;20036;-75
2022/06/28 06:04:45;;;;;;;11.35;4.10;;;;;;;;;;5026490;28;20040;-75
2022/06/28 06:07:11;;;;;;;7.75;3.45;;;;;;;;;;5026383;28;20034;-73
2022/06/28 06:09:36;;;;;;;8.98;4.10;;;;;;;;;;5011768;28;20040;-75
2022/06/28 06:12:04;;;;;;;8.30;3.90;;;;;;;;;;5025430;28;20025;-74
2022/06/28 06:14:29;;;;;;;6.70;3.72;;;;;;;;;;5031679;28;20021;-77
2022/06/28 06:16:55;;;;;;;8.27;4.03;;;;;;;;;;5024300;28;20164;-77
2022/06/28 06:19:20;;;;;;;6.75;3.25;;;;;;;;;;5029573;28;20116;-78
2022/06/28 06:21:46;;;;;;;9.73;3.40;;;;;;;;;;5029884;28;20024;-76
2022/06/28 06:24:12;;;;;;;8.38;3.90;;;;;;;;;;5030406;28;20362;-73
2022/06/28 06:26:38;;;;;;;6.43;3.50;;;;;;;;;;5035185;28;20040;-75
2022/06/28 06:29:03;;;;;;;8.48;3.20;;;;;;;;;;5035661;28;20070;-79
2022/06/28 06:31:29;;;;;;;6.72;3.28;;;;;;;;;;5039946;28;20489;-74
2022/06/28 06:33:55;;;;;;;9.20;4.07;;;;;;;;;;5012627;28;20055;-77
2022/06/28 06:36:21;;;;;;;7.45;3.40;;;;;;;;;;5034069;28;20053;-74
2022/06/28 06:38:47;;;;;;;8.57;3.42;;;;;;;;;;5035778;28;20104;-79
2022/06/28 06:41:13;;;;;;;7.38;3.28;;;;;;;;;;5037241;28;20033;-72
2022/06/28 06:43:38;;;;;;;10.10;3.85;;;;;;;;;;5036207;28;20026;-74
2022/06/28 06:46:04;;;;;;;7.78;3.65;;;;;;;;;;5034449;28;20083;-78
2022/06/28 06:48:29;;;;;;;9.50;3.45;;;;;;;;;;5032728;28;20025;-77
2022/06/28 06:50:54;;;;;;;9.38;3.90;;;;;;;;;;5038612;28;20025;-74
2022/06/28 06:53:20;;;;;;;16.98;3.97;;;;;;;;;;5037330;28;20388;-77
2022/06/28 06:55:47;;;;;;;6.63;3.53;;;;;;;;;;5010310;28;20082;-77
2022/06/28 06:58:13;;;;;;;10.48;3.30;;;;;;;;;;5030844;28;20490;-77
2022/06/28 07:00:38;;;;;;;8.02;3.15;;;;;;;;;;5029309;28;20084;-74
2022/06/28 07:03:04;;;;;;;7.82;2.88;;;;;;;;;;5032373;28;20478;-73
2022/06/28 07:05:30;;;;;;;9.90;3.63;;;;;;;;;;5026109;28;20116;-74
2022/06/28 07:07:56;;;;;;;9.38;3.80;;;;;;;;;;5032546;28;20393;-75
2022/06/28 07:10:21;;;;;;;11.55;3.95;;;;;;;;;;5010121;28;20029;-77
2022/06/28 07:12:47;;;;;;;9.50;3.38;;;;;;;;;;5028181;28;20021;-80
2022/06/28 07:15:12;;;;;;;7.57;3.13;;;;;;;;;;5027034;28;20026;-78
2022/06/28 07:17:38;;;;;;;10.68;3.40;;;;;;;;;;5011016;28;20243;-80
2022/06/28 07:20:05;;;;;;;9.43;2.85;;;;;;;;;;5029942;28;20497;-78
2022/06/28 07:22:30;;;;;;;8.27;2.83;;;;;;;;;;5022460;28;20037;-79
2022/06/28 07:24:56;;;;;;;6.20;2.90;;;;;;;;;;5030473;28;20037;-74
2022/06/28 07:27:22;;;;;;;8.70;2.63;;;;;;;;;;5030116;28;20500;-79
2022/06/28 07:29:48;;;;;;;8.35;2.97;;;;;;;;;;5012234;28;20512;-79
2022/06/28 07:32:14;;;;;;;8.05;2.90;;;;;;;;;;5011581;28;20021;-72
2022/06/28 07:34:40;;;;;;;6.18;2.33;;;;;;;;;;5033497;28;20683;-74
2022/06/28 07:37:05;;;;;;;6.13;2.53;;;;;;;;;;5013983;28;20474;-79
2022/06/28 07:39:30;;;;;;;6.25;3.00;;;;;;;;;;5012636;28;20066;-76
2022/06/28 07:41:56;;;;;;;6.13;2.63;;;;;;;;;;5013115;28;20018;-76
2022/06/28 07:44:21;;;;;;;6.22;2.47;;;;;;;;;;5013151;28;20393;-78
2022/06/28 07:46:46;;;;;;;5.63;2.17;;;;;;;;;;5016778;28;20037;-74
2022/06/28 07:49:12;;;;;;;7.07;2.90;;;;;;;;;;5036597;28;20083;-74
2022/06/28 07:54:22;;;;;;;5.85;2.80;;;;;;;;;;5037100;28;20124;-75
2022/06/28 07:56:47;;;;;;;10.00;2.75;;;;;;;;;;5013052;28;20112;-79
2022/06/28 07:59:12;;;;;;;7.13;2.53;;;;;;;;;;5030460;28;20029;-79
2022/06/28 08:01:38;;;;;;;7.15;1.98;;;;;;;;;;5033564;28;20039;-73
2022/06/28 08:04:03;;;;;;;5.70;1.85;;;;;;;;;;5009088;28;20088;-79
2022/06/28 08:06:29;;;;;;;6.97;1.98;;;;;;;;;;5016652;28;20021;-75
2022/06/28 08:08:54;;;;;;;4.43;1.75;;;;;;;;;;5027525;28;20022;-78
2022/06/28 08:11:20;;;;;;;4.63;1.60;;;;;;;;;;5028883;28;20026;-74
2022/06/28 08:13:48;;;;;;;4.40;1.90;;;;;;;;;;5033376;28;20433;-73
2022/06/28 08:16:13;;;;;;;6.70;2.15;;;;;;;;;;5010512;28;20025;-73
2022/06/28 08:18:39;;;;;;;7.00;1.60;;;;;;;;;;5032570;28;20112;-77
2022/06/28 08:21:05;;;;;;;7.97;2.17;;;;;;;;;;5033308;28;20056;-73
2022/06/28 08:23:30;;;;;;;3.75;1.27;;;;;;;;;;5007949;28;20462;-73
2022/06/28 08:25:56;;;;;;;5.32;1.40;;;;;;;;;;5029031;28;20060;-76
2022/06/28 08:28:21;;;;;;;5.53;1.42;;;;;;;;;;5026624;28;20103;-75
2022/06/28 08:30:47;;;;;;;6.35;1.58;;;;;;;;;;5012923;28;20087;-79
2022/06/28 08:33:12;;;;;;;4.00;1.40;;;;;;;;;;5027927;28;20025;-79
2022/06/28 08:35:38;;;;;;;6.05;1.80;;;;;;;;;;5025219;28;20044;-75
2022/06/28 08:38:07;;;;;;;4.60;1.70;;;;;;;;;;5010583;28;20442;-76
2022/06/28 08:40:33;;;;;;;4.78;1.50;;;;;;;;;;5026308;28;20044;-80
2022/06/28 08:43:00;;;;;;;2.80;1.20;;;;;;;;;;5015407;28;20037;-80
2022/06/28 08:45:26;;;;;;;3.75;0.88;;;;;;;;;;5030503;28;20024;-74
2022/06/28 08:47:53;;;;;;;3.90;0.90;;;;;;;;;;5028607;28;20030;-79
2022/06/28 08:50:40;;;;;;;3.70;0.95;;;;;;;;;;5027966;28;20100;-80
2022/06/28 08:53:08;;;;;;;2.97;0.90;;;;;;;;;;5028176;28;20466;-77
2022/06/28 08:55:34;;;;;;;4.30;1.23;;;;;;;;;;5012279;28;20481;-80
2022/06/28 08:58:06;;;;;;;3.55;1.25;;;;;;;;;;5011108;28;20025;-76
2022/06/28 09:00:32;;;;;;;3.28;1.30;;;;;;;;;;5020606;28;20116;-75
2022/06/28 09:02:58;;;;;;;5.18;1.27;;;;;;;;;;5033094;28;20044;-79
2022/06/28 09:05:27;;;;;;;1.25;0.80;;;;;;;;;;5006205;28;20052;-73
2022/06/28 09:07:56;;;;;;;2.85;0.90;;;;;;;;;;5033289;28;20112;-79
2022/06/28 09:10:22;;;;;;;4.30;0.88;;;;;;;;;;5027246;28;20084;-79
2022/06/28 09:12:54;;;;;;;3.53;1.00;;;;;;;;;;5024980;28;20029;-78
2022/06/28 09:15:25;;;;;;;4.00;1.23;;;;;;;;;;5025266;28;20040;-78
2022/06/28 09:17:55;;;;;;;3.28;0.80;;;;;;;;;;5033377;28;20056;-79
2022/06/28 09:20:34;;;;;;;5.25;1.00;;;;;;;;;;5012765;28;20029;-79
2022/06/28 09:22:59;;;;;;;3.83;0.93;;;;;;;;;;5028772;28;20021;-74
2022/06/28 09:25:28;;;;;;;3.42;1.00;;;;;;;;;;5029099;28;20037;-78
2022/06/28 09:27:58;;;;;;;4.63;1.10;;;;;;;;;;5009569;28;20021;-73
2022/06/28 09:30:26;;;;;;;4.38;1.35;;;;;;;;;;5006949;28;20109;-79
2022/06/28 09:32:52;;;;;;;4.00;1.00;;;;;;;;;;5034143;28;20492;-79
2022/06/28 09:35:17;;;;;;;3.28;0.88;;;;;;;;;;5011041;28;20022;-78
2022/06/28 09:37:47;;;;;;;3.85;1.02;;;;;;;;;;5027454;28;20017;-74
2022/06/28 09:40:20;;;;;;;2.80;0.70;;;;;;;;;;5026988;28;20508;-74
2022/06/28 09:42:47;;;;;;;;;;;;;;;;;;5030760;28;20789;-78
2022/06/28 09:45:16;;;;;;;3.53;1.00;;;;;;;;;;5008475;28;19920;-78
2022/06/28 09:47:46;;;;;;;2.35;0.80;;;;;;;;;;5004026;28;20030;-78
2022/06/28 09:50:17;;;;;;;3.38;0.98;;;;;;;;;;5012793;28;20026;-78
2022/06/28 09:52:44;;;;;;;3.88;1.10;;;;;;;;;;5031521;28;20397;-74
2022/06/28 09:55:11;;;;;;;3.08;1.00;;;;;;;;;;5017430;28;20107;-73
2022/06/28 09:57:36;;;;;;;4.45;1.10;;;;;;;;;;5008049;28;21218;-78
2022/06/28 10:00:03;;;;;;;6.13;2.05;;;;;;;;;;5012901;28;20025;-79
2022/06/28 10:02:29;;;;;;;4.40;1.10;;;;;;;;;;5026081;28;20518;-73
2022/06/28 10:04:55;;;;;;;3.92;0.93;;;;;;;;;;5012078;28;20029;-78
2022/06/28 10:07:23;;;;;;;2.30;1.00;;;;;;;;;;5026015;28;20030;-75
2022/06/28 10:09:49;;;;;;;3.05;0.80;;;;;;;;;;5007294;28;20037;-78
2022/06/28 10:15:01;;;;;;;1.80;0.80;;;;;;;;;;5024943;28;20056;-79
2022/06/28 10:17:50;;;;;;;2.65;0.90;;;;;;;;;;5017001;28;20083;-76
2022/06/28 10:20:20;;;;;;;3.67;0.82;;;;;;;;;;5028739;28;20156;-78
2022/06/28 10:22:46;;;;;;;3.92;0.90;;;;;;;;;;5013724;28;20699;-77
2022/06/28 10:25:21;;;;;;;2.50;0.60;;;;;;;;;;5015814;28;20029;-75
2022/06/28 10:27:49;;;;;;;3.95;1.00;;;;;;;;;;5028130;28;20021;-78
2022/06/28 10:30:14;;;;;;;2.50;0.70;;;;;;;;;;5014657;28;20029;-75
2022/06/28 10:32:51;;;;;;;4.40;0.80;;;;;;;;;;5016602;28;20032;-73
2022/06/28 10:35:28;;;;;;;2.33;0.98;;;;;;;;;;5030159;28;20021;-78
2022/06/28 10:38:09;;;;;;;3.33;1.02;;;;;;;;;;5034057;28;20021;-75
2022/06/28 10:40:41;;;;;;;2.80;0.90;;;;;;;;;;5034138;28;20029;-74
2022/06/28 10:43:08;;;;;;;3.22;0.90;;;;;;;;;;5035847;28;20025;-74
2022/06/28 10:46:07;;;;;;;3.97;1.42;;;;;;;;;;5034111;28;20359;-78
2022/06/28 10:48:47;;;;;;;2.53;0.82;;;;;;;;;;5027259;28;20029;-78
2022/06/28 10:51:13;;;;;;;2.70;1.15;;;;;;;;;;5027754;28;20092;-78
2022/06/28 10:53:54;;;;;;;2.33;0.70;;;;;;;;;;5032288;28;20117;-73
2022/06/28 10:56:21;;;;;;;2.75;0.80;;;;;;;;;;5033416;28;20063;-73
2022/06/28 10:58:55;;;;;;;2.83;0.88;;;;;;;;;;5030069;28;20025;-78
2022/06/28 11:01:39;;;;;;;2.88;0.90;;;;;;;;;;5016799;28;20116;-75
2022/06/28 11:04:19;;;;;;;4.13;0.82;;;;;;;;;;5033921;28;20036;-74
2022/06/28 11:06:57;;;;;;;3.20;1.00;;;;;;;;;;5027670;28;20033;-78
2022/06/28 11:09:38;;;;;;;1.85;0.80;;;;;;;;;;5035089;28;20029;-74
2022/06/28 11:12:13;;;;;;;2.45;0.73;;;;;;;;;;5031881;28;20037;-78
2022/06/28 11:14:49;;;;;;;2.70;0.90;;;;;;;;;;5011894;28;20029;-73
2022/06/28 11:17:20;;;;;;;2.50;0.80;;;;;;;;;;5031656;28;20039;-79
2022/06/28 11:19:53;;;;;;;1.48;0.70;;;;;;;;;;5032153;28;20018;-79
2022/06/28 11:22:28;;;;;;;2.50;0.90;;;;;;;;;;5019839;28;20037;-72
2022/06/28 11:24:55;;;;;;;2.22;0.80;;;;;;;;;;5027315;28;20025;-75
2022/06/28 11:27:21;;;;;;;3.47;0.80;;;;;;;;;;5030593;28;20032;-78
2022/06/28 11:29:53;;;;;;;1.92;0.80;;;;;;;;;;5026564;28;20124;-75
2022/06/28 11:32:21;;;;;;;2.57;1.00;;;;;;;;;;5033746;28;20025;-73
2022/06/28 11:35:09;;;;;;;2.67;1.00;;;;;;;;;;5017518;28;20025;-75
2022/06/28 11:38:15;;;;;;;2.63;0.77;;;;;;;;;;5031639;28;20044;-78
2022/06/28 11:40:43;;;;;;;2.85;0.60;;;;;;;;;;5009975;28;20029;-79
2022/06/28 11:43:10;;;;;;;3.33;0.73;;;;;;;;;;5036033;28;20563;-76
2022/06/28 11:45:37;;;;;;;2.90;0.75;;;;;;;;;;5030028;28;20032;-79
2022/06/28 11:48:05;;;;;;;3.90;0.73;;;;;;;;;;5030511;28;20071;-73
2022/06/28 11:50:45;;;;;;;3.53;0.98;;;;;;;;;;5027493;28;20097;-76
2022/06/28 11:53:13;;;;;;;2.58;0.68;;;;;;;;;;5011452;28;20021;-77
2022/06/28 11:55:56;;;;;;;2.63;0.82;;;;;;;;;;5030739;28;20041;-74
2022/06/28 11:58:29;;;;;;;2.25;0.52;;;;;;;;;;5019095;28;20033;-74
2022/06/28 12:01:08;;;;;;;1.92;0.60;;;;;;;;;;5018065;28;20033;-79
2022/06/28 12:03:54;;;;;;;3.47;0.80;;;;;;;;;;5007768;28;20025;-75
2022/06/28 12:06:24;;;;;;;2.97;0.77;;;;;;;;;;5021980;28;20013;-79
2022/06/28 12:09:00;;;;;;;2.58;0.88;;;;;;;;;;5015086;28;20346;-73
2022/06/28 12:11:25;;;;;;;2.60;0.80;;;;;;;;;;5031339;28;20381;-73
2022/06/28 12:13:59;;;;;;;3.28;1.00;;;;;;;;;;5038793;28;20021;-73
2022/06/28 12:16:43;;;;;;;2.22;0.85;;;;;;;;;;5032185;28;20029;-74
2022/06/28 12:19:18;;;;;;;3.10;0.93;;;;;;;;;;5025662;28;20439;-78
2022/06/28 12:22:03;;;;;;;1.70;0.70;;;;;;;;;;5029549;28;20114;-72
2022/06/28 12:24:49;;;;;;;4.75;0.77;;;;;;;;;;5027217;28;20040;-75
2022/06/28 12:27:21;;;;;;;3.03;0.70;;;;;;;;;;5013066;28;20025;-78
2022/06/28 12:29:47;;;;;;;1.85;0.93;;;;;;;;;;5027905;28;20037;-79
2022/06/28 12:32:12;;;;;;;1.83;0.80;;;;;;;;;;5030478;28;20027;-77
2022/06/28 12:34:40;;;;;;;2.78;0.93;;;;;;;;;;5013484;28;20038;-74
2022/06/28 12:37:08;;;;;;;2.20;0.80;;;;;;;;;;5028244;28;20028;-72
2022/06/28 12:39:34;;;;;;;3.22;0.90;;;;;;;;;;5023753;28;20033;-77
2022/06/28 12:41:59;;;;;;;2.03;0.88;;;;;;;;;;5010537;28;20444;-72
2022/06/28 12:44:24;;;;;;;4.78;0.90;;;;;;;;;;5012687;28;20044;-73
2022/06/28 12:46:53;;;;;;;3.22;1.13;;;;;;;;;;5013584;28;20032;-78
2022/06/28 12:49:21;;;;;;;2.03;0.85;;;;;;;;;;5028043;28;20394;-76
2022/06/28 12:51:47;;;;;;;3.72;1.00;;;;;;;;;;5011913;28;20017;-74
2022/06/28 12:54:13;;;;;;;1.98;0.70;;;;;;;;;;5028747;28;20361;-78
2022/06/28 12:56:39;;;;;;;2.72;0.75;;;;;;;;;;5029003;28;20580;-75
2022/06/28 12:59:05;;;;;;;3.22;1.33;;;;;;;;;;5011255;28;20032;-78
2022/06/28 13:01:30;;;;;;;2.38;1.23;;;;;;;;;;5030891;28;20029;-78
2022/06/28 13:03:55;;;;;;;2.47;0.90;;;;;;;;;;5018218;28;20507;-74
2022/06/28 13:06:21;;;;;;;4.38;1.23;;;;;;;;;;5015954;28;20465;-77
2022/06/28 13:08:47;;;;;;;1.75;0.70;;;;;;;;;;5028448;28;20036;-74
2022/06/28 13:11:13;;;;;;;2.83;0.80;;;;;;;;;;5038242;28;20029;-74
2022/06/28 13:13:38;;;;;;;2.95;0.93;;;;;;;;;;5013238;28;20567;-78
2022/06/28 13:16:04;;;;;;;2.60;1.13;;;;;;;;;;5029745;28;20026;-73
2022/06/28 13:18:30;;;;;;;3.65;0.75;;;;;;;;;;5028028;28;20021;-78
2022/06/28 13:20:56;;;;;;;2.50;0.80;;;;;;;;;;5011708;28;20025;-75
2022/06/28 13:23:22;;;;;;;2.83;0.95;;;;;;;;;;5004910;28;20018;-72
2022/06/28 13:25:47;;;;;;;2.42;1.00;;;;;;;;;;5025086;28;20032;-74
2022/06/28 13:28:14;;;;;;;2.38;0.90;;;;;;;;;;5030849;28;20046;-77
2022/06/28 13:30:41;;;;;;;1.55;0.80;;;;;;;;;;5028679;28;20060;-74
2022/06/28 13:33:08;;;;;;;2.22;0.88;;;;;;;;;;5013379;28;20059;-72
2022/06/28 13:35:33;;;;;;;2.80;0.90;;;;;;;;;;5034915;28;20032;-79
2022/06/28 13:37:59;;;;;;;4.00;0.88;;;;;;;;;;5009081;28;20029;-76
2022/06/28 13:40:25;;;;;;;2.38;0.90;;;;;;;;;;5006491;28;20120;-77
2022/06/28 13:42:50;;;;;;;1.95;1.05;;;;;;;;;;5002594;28;20394;-74
2022/06/28 13:45:16;;;;;;;2.58;1.00;;;;;;;;;;5026355;28;20490;-79
2022/06/28 13:47:45;;;;;;;2.97;1.00;;;;;;;;;;5030446;28;20534;-74
2022/06/28 13:50:11;;;;;;;2.15;0.90;;;;;;;;;;5021853;28;20030;-78
2022/06/28 13:52:42;;;;;;;2.10;0.95;;;;;;;;;;5022544;28;20037;-78
2022/06/28 13:55:09;;;;;;;2.05;1.10;;;;;;;;;;5008573;28;20029;-74
2022/06/28 13:57:34;;;;;;;4.78;1.20;;;;;;;;;;5014073;28;20497;-74
2022/06/28 14:00:00;;;;;;;4.32;1.05;;;;;;;;;;5024890;28;20029;-76
2022/06/28 14:02:25;;;;;;;2.10;0.88;;;;;;;;;;5029109;28;20029;-74
2022/06/28 14:04:52;;;;;;;3.83;1.00;;;;;;;;;;5028419;28;20026;-78
2022/06/28 14:07:17;;;;;;;2.20;1.00;;;;;;;;;;5028460;28;20461;-78
2022/06/28 14:09:43;;;;;;;4.10;1.27;;;;;;;;;;5012057;28;20030;-77
2022/06/28 14:12:09;;;;;;;1.55;0.82;;;;;;;;;;5008934;28;20056;-74
2022/06/28 14:14:35;;;;;;;3.67;0.82;;;;;;;;;;5031467;28;20034;-72
2022/06/28 14:17:00;;;;;;;4.35;0.90;;;;;;;;;;5008637;28;20021;-73
2022/06/28 14:19:26;;;;;;;1.40;0.70;;;;;;;;;;5011877;28;20033;-78
2022/06/28 14:21:51;;;;;;;3.35;1.08;;;;;;;;;;5032699;28;20573;-74
2022/06/28 14:24:16;;;;;;;2.45;0.75;;;;;;;;;;5024370;28;20840;-73
2022/06/28 14:26:42;;;;;;;2.05;0.70;;;;;;;;;;5012213;28;20073;-77
2022/06/28 14:29:07;;;;;;;2.17;0.95;;;;;;;;;;5025833;28;20063;-75
2022/06/28 14:31:33;;;;;;;3.08;0.77;;;;;;;;;;5007697;28;20022;-77
2022/06/28 14:33:58;;;;;;;2.33;0.90;;;;;;;;;;5008689;28;20037;-77
2022/06/28 14:36:23;;;;;;;2.63;0.73;;;;;;;;;;5010777;28;20076;-77
2022/06/28 14:38:49;;;;;;;2.17;0.65;;;;;;;;;;5008753;28;20033;-78
2022/06/28 14:41:14;;;;;;;5.40;1.05;;;;;;;;;;5006538;28;20528;-74
2022/06/28 14:43:40;;;;;;;3.97;0.80;;;;;;;;;;5022123;28;20035;-74
2022/06/28 14:46:05;;;;;;;2.17;0.80;;;;;;;;;;5009613;28;20485;-75
2022/06/28 14:48:31;;;;;;;2.75;1.00;;;;;;;;;;5027703;28;20034;-75
2022/06/28 14:50:56;;;;;;;2.85;0.80;;;;;;;;;;5025299;28;20063;-73
2022/06/28 14:53:23;;;;;;;4.65;1.00;;;;;;;;;;5023926;28;20033;-77
2022/06/28 14:55:51;;;;;;;2.35;0.93;;;;;;;;;;5023112;28;20033;-74